createdAt,value
2022-12-11T00:00:34.220Z,35.95
2022-12-11T00:03:00.769Z,36.15
2022-12-11T00:05:27.263Z,37.38
2022-12-11T00:07:54.068Z,37.58
2022-12-11T00:10:20.650Z,36.45
2022-12-11T00:12:47.086Z,36.17
2022-12-11T00:15:13.785Z,35.85
2022-12-11T00:17:40.394Z,37.65
2022-12-11T00:20:08.152Z,37.95
2022-12-11T00:22:34.806Z,35.72
2022-12-11T00:25:01.519Z,34.55
2022-12-11T00:27:28.104Z,33.70
2022-12-11T00:29:54.486Z,35.92
2022-12-11T00:32:21.009Z,34.28
2022-12-11T00:34:47.528Z,35.35
2022-12-11T00:37:13.989Z,33.90
2022-12-11T00:39:40.482Z,32.88
2022-12-11T00:42:07.881Z,32.20
2022-12-11T00:44:34.464Z,32.22
2022-12-11T00:47:01.178Z,31.80
2022-12-11T00:49:27.635Z,34.05
2022-12-11T00:51:54.135Z,31.73
2022-12-11T00:54:21.020Z,30.92
2022-12-11T00:56:47.506Z,28.77
2022-12-11T00:59:13.985Z,28.10
2022-12-11T01:04:28.382Z,24.95
2022-12-11T01:06:54.837Z,24.75
2022-12-11T01:09:44.439Z,26.30
2022-12-11T01:12:10.878Z,25.73
2022-12-11T01:14:38.517Z,24.63
2022-12-11T01:17:04.983Z,24.30
2022-12-11T01:19:31.435Z,23.33
2022-12-11T01:21:57.923Z,22.63
2022-12-11T01:24:24.380Z,23.98
2022-12-11T01:26:50.891Z,23.00
2022-12-11T01:29:17.305Z,23.25
2022-12-11T01:31:43.810Z,22.45
2022-12-11T01:34:10.221Z,21.13
2022-12-11T01:36:39.787Z,21.02
2022-12-11T01:39:06.222Z,21.25
2022-12-11T01:41:32.709Z,19.83
2022-12-11T01:44:00.827Z,21.73
2022-12-11T01:46:28.230Z,19.98
2022-12-11T01:48:55.043Z,22.38
2022-12-11T01:51:22.558Z,21.20
2022-12-11T01:53:51.683Z,21.80
2022-12-11T01:56:18.445Z,21.17
2022-12-11T01:58:51.611Z,21.05
2022-12-11T02:01:44.486Z,21.40
2022-12-11T02:04:11.342Z,21.48
2022-12-11T02:06:42.507Z,21.63
2022-12-11T02:09:13.741Z,21.17
2022-12-11T02:12:00.427Z,20.63
2022-12-11T02:14:43.880Z,20.50
2022-12-11T02:17:16.323Z,20.13
2022-12-11T02:20:04.027Z,21.55
2022-12-11T02:22:33.514Z,21.30
2022-12-11T02:25:06.408Z,20.10
2022-12-11T02:27:41.880Z,20.77
2022-12-11T02:30:12.617Z,21.33
2022-12-11T02:32:51.387Z,20.38
2022-12-11T02:35:40.042Z,20.40
2022-12-11T02:38:08.945Z,21.30
2022-12-11T02:40:40.198Z,21.63
2022-12-11T02:43:08.827Z,20.52
2022-12-11T02:45:36.237Z,20.35
2022-12-11T02:48:04.038Z,19.42
2022-12-11T02:50:30.603Z,21.13
2022-12-11T02:52:57.711Z,19.30
2022-12-11T02:55:26.049Z,19.85
2022-12-11T02:57:58.976Z,20.20
2022-12-11T03:00:25.391Z,19.50
2022-12-11T03:02:51.926Z,20.27
2022-12-11T03:05:18.437Z,18.83
2022-12-11T03:07:45.026Z,19.95
2022-12-11T03:10:14.634Z,19.75
2022-12-11T03:12:43.099Z,18.52
2022-12-11T03:15:13.844Z,18.30
2022-12-11T03:17:59.310Z,18.33
2022-12-11T03:20:25.698Z,19.25
2022-12-11T03:23:03.092Z,17.92
2022-12-11T03:25:35.837Z,18.75
2022-12-11T03:28:13.383Z,17.10
2022-12-11T03:30:40.175Z,17.42
2022-12-11T03:33:08.593Z,18.08
2022-12-11T03:35:37.953Z,17.25
2022-12-11T03:38:08.193Z,16.83
2022-12-11T03:40:35.713Z,16.50
2022-12-11T03:43:02.838Z,15.65
2022-12-11T03:45:30.052Z,15.88
2022-12-11T03:47:57.625Z,17.10
2022-12-11T03:50:24.779Z,14.68
2022-12-11T03:52:51.726Z,16.75
2022-12-11T03:55:19.238Z,15.50
2022-12-11T03:57:45.693Z,15.57
2022-12-11T04:00:14.212Z,15.10
2022-12-11T04:02:40.962Z,15.70
2022-12-11T04:05:08.083Z,15.07
2022-12-11T04:07:34.718Z,16.25
2022-12-11T04:10:01.256Z,15.52
2022-12-11T04:12:27.648Z,15.50
2022-12-11T04:15:02.992Z,16.05
2022-12-11T04:17:49.184Z,16.92
2022-12-11T04:20:34.822Z,16.45
2022-12-11T04:23:22.219Z,16.92
2022-12-11T04:25:48.656Z,17.17
2022-12-11T04:28:15.119Z,16.35
2022-12-11T04:30:41.654Z,16.33
2022-12-11T04:33:08.101Z,18.50
2022-12-11T04:35:34.511Z,17.15
2022-12-11T04:38:01.327Z,17.92
2022-12-11T04:40:27.782Z,18.27
2022-12-11T04:42:54.240Z,16.90
2022-12-11T04:45:20.668Z,17.80
2022-12-11T04:47:47.325Z,17.75
2022-12-11T04:50:14.777Z,17.40
2022-12-11T04:52:41.284Z,18.40
2022-12-11T04:55:08.786Z,19.08
2022-12-11T04:57:35.682Z,18.08
2022-12-11T05:00:04.580Z,19.58
2022-12-11T05:02:33.944Z,17.30
2022-12-11T05:05:00.462Z,17.67
2022-12-11T05:07:26.989Z,17.50
2022-12-11T05:09:53.412Z,18.23
2022-12-11T05:12:19.958Z,17.25
2022-12-11T05:14:46.427Z,18.25
2022-12-11T05:17:13.557Z,18.58
2022-12-11T05:19:39.999Z,19.02
2022-12-11T05:22:06.386Z,18.27
2022-12-11T05:24:32.852Z,19.33
2022-12-11T05:26:59.250Z,18.90
2022-12-11T05:29:25.679Z,18.92
2022-12-11T05:31:52.077Z,19.20
2022-12-11T05:34:18.562Z,18.77
2022-12-11T05:36:44.955Z,18.13
2022-12-11T05:39:11.551Z,18.98
2022-12-11T05:41:37.995Z,19.52
2022-12-11T05:44:04.452Z,18.95
2022-12-11T05:46:31.188Z,19.52
2022-12-11T05:48:59.382Z,20.00
2022-12-11T05:51:26.359Z,18.52
2022-12-11T05:53:53.327Z,21.65
2022-12-11T05:56:21.481Z,20.10
2022-12-11T05:58:48.408Z,21.00
2022-12-11T06:01:22.790Z,21.45
2022-12-11T06:03:49.234Z,21.23
2022-12-11T06:06:16.232Z,21.02
2022-12-11T06:08:42.828Z,20.63
2022-12-11T06:11:09.552Z,21.42
2022-12-11T06:13:36.033Z,22.05
2022-12-11T06:16:03.525Z,20.42
2022-12-11T06:18:30.231Z,21.15
2022-12-11T06:20:56.843Z,22.33
2022-12-11T06:23:23.333Z,22.40
2022-12-11T06:25:49.759Z,21.67
2022-12-11T06:28:16.183Z,21.65
2022-12-11T06:30:42.560Z,21.38
2022-12-11T06:33:09.315Z,21.85
2022-12-11T06:35:41.785Z,21.80
2022-12-11T06:38:09.274Z,21.63
2022-12-11T06:40:35.755Z,23.80
2022-12-11T06:43:02.227Z,21.77
2022-12-11T06:45:28.746Z,22.35
2022-12-11T06:47:55.690Z,23.25
2022-12-11T06:50:22.152Z,21.45
2022-12-11T06:52:48.568Z,22.38
2022-12-11T06:55:15.004Z,24.50
2022-12-11T06:57:41.473Z,27.08
2022-12-11T07:00:08.497Z,23.50
2022-12-11T07:02:35.060Z,25.02
2022-12-11T07:05:01.612Z,24.10
2022-12-11T07:07:28.170Z,24.05
2022-12-11T07:09:54.598Z,21.95
2022-12-11T07:12:21.409Z,26.73
2022-12-11T07:14:47.778Z,24.40
2022-12-11T07:17:14.422Z,22.77
2022-12-11T07:19:41.037Z,23.23
2022-12-11T07:22:07.730Z,22.38
2022-12-11T07:24:34.167Z,23.42
2022-12-11T07:27:00.804Z,22.92
2022-12-11T07:29:27.290Z,24.90
2022-12-11T07:31:53.755Z,23.88
2022-12-11T07:34:20.365Z,26.67
2022-12-11T07:36:46.836Z,25.35
2022-12-11T07:39:13.649Z,25.48
2022-12-11T07:41:40.265Z,23.77
2022-12-11T07:44:06.713Z,24.42
2022-12-11T07:46:33.555Z,23.95
2022-12-11T07:49:00.981Z,23.70
2022-12-11T07:51:29.182Z,23.80
2022-12-11T07:53:57.035Z,23.80
2022-12-11T07:56:23.693Z,24.77
2022-12-11T07:58:50.446Z,25.20
2022-12-11T08:01:18.526Z,24.92
2022-12-11T08:03:45.453Z,23.83
2022-12-11T08:06:11.995Z,24.55
2022-12-11T08:08:39.238Z,26.95
2022-12-11T08:11:06.941Z,24.35
2022-12-11T08:13:33.945Z,23.90
2022-12-11T08:16:03.605Z,25.52
2022-12-11T08:18:30.594Z,24.13
2022-12-11T08:20:57.022Z,24.25
2022-12-11T08:23:23.414Z,25.25
2022-12-11T08:25:49.966Z,25.55
2022-12-11T08:28:16.366Z,25.48
2022-12-11T08:30:42.955Z,26.23
2022-12-11T08:33:09.442Z,26.55
2022-12-11T08:35:39.310Z,25.73
2022-12-11T08:38:05.737Z,26.25
2022-12-11T08:40:32.146Z,33.17
2022-12-11T08:42:58.612Z,27.15
2022-12-11T08:45:25.102Z,26.52
2022-12-11T08:47:51.515Z,25.48
2022-12-11T08:50:17.996Z,25.17
2022-12-11T08:52:44.420Z,27.10
2022-12-11T08:55:11.029Z,27.70
2022-12-11T08:57:39.818Z,25.67
2022-12-11T09:00:07.730Z,26.02
2022-12-11T09:02:34.380Z,24.77
2022-12-11T09:05:01.139Z,26.42
2022-12-11T09:07:27.599Z,28.15
2022-12-11T09:09:54.603Z,27.15
2022-12-11T09:12:21.051Z,26.75
2022-12-11T09:14:47.794Z,25.48
2022-12-11T09:17:14.255Z,24.30
2022-12-11T09:19:40.717Z,24.30
2022-12-11T09:22:07.177Z,25.33
2022-12-11T09:24:33.561Z,27.65
2022-12-11T09:27:00.128Z,28.98
2022-12-11T09:29:26.549Z,25.20
2022-12-11T09:31:52.987Z,25.35
2022-12-11T09:34:23.655Z,23.95
2022-12-11T09:36:53.942Z,25.33
2022-12-11T09:39:20.348Z,28.17
2022-12-11T09:41:49.638Z,26.38
2022-12-11T09:44:34.252Z,24.48
2022-12-11T09:47:01.017Z,24.65
2022-12-11T09:49:33.578Z,26.40
2022-12-11T09:52:03.984Z,24.92
2022-12-11T09:54:30.442Z,25.88
2022-12-11T09:57:03.147Z,27.80
2022-12-11T09:59:41.070Z,26.87
2022-12-11T10:02:30.526Z,24.38
2022-12-11T10:05:08.627Z,25.35
2022-12-11T10:07:41.915Z,25.42
2022-12-11T10:10:27.141Z,26.52
2022-12-11T10:12:53.549Z,25.73
2022-12-11T10:15:19.913Z,23.27
2022-12-11T10:17:47.064Z,25.98
2022-12-11T10:20:43.319Z,24.55
2022-12-11T10:23:16.792Z,24.85
2022-12-11T10:25:50.092Z,25.10
2022-12-11T10:28:17.981Z,26.75
2022-12-11T10:30:48.659Z,24.42
2022-12-11T10:33:22.803Z,26.95
2022-12-11T10:35:53.401Z,26.05
2022-12-11T10:38:30.572Z,25.08
2022-12-11T10:40:57.060Z,24.10
2022-12-11T10:43:37.363Z,25.98
2022-12-11T10:46:05.115Z,24.77
2022-12-11T10:48:31.611Z,24.48
2022-12-11T10:51:00.346Z,24.95
2022-12-11T10:53:34.000Z,24.67
2022-12-11T10:58:41.715Z,22.95
2022-12-11T11:01:15.458Z,23.80
2022-12-11T11:03:57.252Z,23.85
2022-12-11T11:06:25.855Z,22.98
2022-12-11T11:08:53.783Z,23.52
2022-12-11T11:11:22.862Z,24.40
2022-12-11T11:13:49.597Z,24.48
2022-12-11T11:16:17.759Z,22.20
2022-12-11T11:18:51.072Z,21.00
2022-12-11T11:21:22.306Z,20.98
2022-12-11T11:23:53.275Z,18.67
2022-12-11T11:26:21.399Z,18.40
2022-12-11T11:28:49.957Z,18.30
2022-12-11T11:31:17.817Z,20.45
2022-12-11T11:33:47.380Z,19.80
2022-12-11T11:36:27.810Z,19.52
2022-12-11T11:39:15.777Z,17.38
2022-12-11T11:41:54.521Z,17.30
2022-12-11T11:44:47.473Z,18.85
2022-12-11T11:47:19.507Z,16.63
2022-12-11T11:49:52.000Z,15.63
2022-12-11T11:52:21.808Z,16.90
2022-12-11T11:54:57.538Z,16.70
2022-12-11T11:57:32.894Z,17.55
2022-12-11T12:00:17.360Z,21.77
2022-12-11T12:02:48.484Z,18.15
2022-12-11T12:05:22.546Z,17.60
2022-12-11T12:08:01.106Z,17.48
2022-12-11T12:10:49.806Z,17.05
2022-12-11T12:13:50.774Z,17.75
2022-12-11T12:16:55.886Z,17.42
2022-12-11T12:19:41.534Z,17.40
2022-12-11T12:22:14.839Z,17.50
2022-12-11T12:24:53.029Z,17.45
2022-12-11T12:27:51.047Z,20.25
2022-12-11T12:30:18.779Z,17.45
2022-12-11T12:32:48.624Z,18.77
2022-12-11T12:35:34.716Z,17.90
2022-12-11T12:38:12.165Z,18.45
2022-12-11T12:40:47.243Z,18.00
2022-12-11T12:43:19.699Z,17.38
2022-12-11T12:45:52.257Z,17.77
2022-12-11T12:48:18.827Z,18.65
2022-12-11T12:50:46.931Z,19.75
2022-12-11T12:53:16.222Z,23.23
2022-12-11T12:55:43.581Z,26.70
2022-12-11T12:58:25.019Z,25.50
2022-12-11T13:00:51.451Z,25.58
2022-12-11T13:03:17.946Z,28.80
2022-12-11T13:05:59.407Z,19.77
2022-12-11T13:08:27.700Z,19.02
2022-12-11T13:11:00.909Z,17.25
2022-12-11T13:13:36.311Z,17.92
2022-12-11T13:16:23.456Z,17.50
2022-12-11T13:18:50.078Z,17.92
2022-12-11T13:21:31.907Z,20.58
2022-12-11T13:24:21.557Z,18.92
2022-12-11T13:26:48.776Z,19.92
2022-12-11T13:29:35.385Z,19.77
2022-12-11T13:32:08.082Z,20.17
2022-12-11T13:34:36.985Z,20.97
2022-12-11T13:37:07.530Z,18.13
2022-12-11T13:39:40.803Z,18.70
2022-12-11T13:42:11.826Z,19.23
2022-12-11T13:44:41.827Z,18.25
2022-12-11T13:47:12.609Z,18.50
2022-12-11T13:49:40.750Z,23.60
2022-12-11T13:52:07.399Z,18.65
2022-12-11T13:54:35.112Z,17.88
2022-12-11T13:57:04.183Z,17.70
2022-12-11T13:59:32.844Z,19.52
2022-12-11T14:02:00.830Z,17.00
2022-12-11T14:04:28.319Z,17.27
2022-12-11T14:06:55.825Z,16.92
2022-12-11T14:09:24.204Z,16.60
2022-12-11T14:11:56.614Z,19.92
2022-12-11T14:14:23.511Z,19.80
2022-12-11T14:16:51.717Z,21.00
2022-12-11T14:19:20.279Z,19.73
2022-12-11T14:21:56.906Z,18.25
2022-12-11T14:24:23.663Z,16.80
2022-12-11T14:26:51.686Z,16.40
2022-12-11T14:29:29.777Z,18.73
2022-12-11T14:31:57.242Z,17.40
2022-12-11T14:34:30.849Z,17.50
2022-12-11T14:39:28.472Z,16.35
2022-12-11T14:41:54.912Z,17.77
2022-12-11T14:44:23.629Z,17.30
2022-12-11T14:46:53.279Z,17.35
2022-12-11T14:49:22.723Z,23.75
2022-12-11T14:51:50.505Z,22.42
2022-12-11T14:54:26.150Z,21.50
2022-12-11T14:56:54.032Z,18.17
2022-12-11T14:59:26.977Z,19.27
2022-12-11T15:02:01.843Z,18.38
2022-12-11T15:04:32.763Z,17.55
2022-12-11T15:06:59.736Z,21.20
2022-12-11T15:09:36.379Z,20.20
2022-12-11T15:12:16.836Z,18.55
2022-12-11T15:14:48.579Z,18.77
2022-12-11T15:17:15.362Z,20.27
2022-12-11T15:19:42.027Z,17.70
2022-12-11T15:22:10.056Z,17.48
2022-12-11T15:24:38.431Z,17.30
2022-12-11T15:27:05.195Z,18.80
2022-12-11T15:29:40.842Z,18.10
2022-12-11T15:32:20.110Z,17.40
2022-12-11T15:34:54.239Z,20.85
2022-12-11T15:37:22.151Z,18.17
2022-12-11T15:39:48.529Z,18.42
2022-12-11T15:42:16.242Z,18.15
2022-12-11T15:44:42.884Z,18.08
2022-12-11T15:47:15.852Z,17.35
2022-12-11T15:49:42.335Z,18.17
2022-12-11T15:52:08.799Z,17.92
2022-12-11T15:54:35.278Z,17.60
2022-12-11T15:57:03.942Z,16.35
2022-12-11T15:59:30.905Z,17.40
2022-12-11T16:01:57.565Z,42.28
2022-12-11T16:04:27.625Z,37.33
2022-12-11T16:06:54.707Z,25.80
2022-12-11T16:09:21.136Z,22.95
2022-12-11T16:11:47.648Z,22.00
2022-12-11T16:14:14.058Z,22.10
2022-12-11T16:16:40.545Z,21.50
2022-12-11T16:19:06.996Z,23.33
2022-12-11T16:21:33.527Z,22.73
2022-12-11T16:24:00.160Z,22.45
2022-12-11T16:26:29.672Z,20.38
2022-12-11T16:28:56.247Z,20.27
2022-12-11T16:31:23.094Z,25.35
2022-12-11T16:33:52.176Z,23.67
2022-12-11T16:36:19.595Z,28.20
2022-12-11T16:38:52.952Z,25.58
2022-12-11T16:41:20.486Z,25.40
2022-12-11T16:43:47.528Z,24.20
2022-12-11T16:46:17.383Z,25.00
2022-12-11T16:48:44.449Z,23.88
2022-12-11T16:51:10.879Z,24.50
2022-12-11T16:53:37.440Z,23.17
2022-12-11T16:56:05.227Z,23.55
2022-12-11T16:58:31.687Z,25.35
2022-12-11T17:01:02.363Z,22.85
2022-12-11T17:03:30.256Z,21.10
2022-12-11T17:05:57.792Z,20.85
2022-12-11T17:08:24.464Z,21.67
2022-12-11T17:10:51.752Z,24.45
2022-12-11T17:13:18.438Z,21.92
2022-12-11T17:15:45.370Z,23.02
2022-12-11T17:18:11.886Z,24.63
2022-12-11T17:20:42.360Z,23.77
2022-12-11T17:23:12.403Z,19.70
2022-12-11T17:25:43.074Z,20.17
2022-12-11T17:28:10.015Z,22.58
2022-12-11T17:30:41.297Z,20.83
2022-12-11T17:33:11.335Z,20.27
2022-12-11T17:36:00.068Z,19.77
2022-12-11T17:38:26.730Z,21.75
2022-12-11T17:40:53.506Z,25.08
2022-12-11T17:43:26.261Z,22.48
2022-12-11T17:45:52.909Z,21.73
2022-12-11T17:48:22.389Z,20.17
2022-12-11T17:50:50.094Z,23.98
2022-12-11T17:53:26.651Z,20.20
2022-12-11T17:55:53.837Z,22.35
2022-12-11T17:58:30.912Z,20.00
2022-12-11T18:01:00.026Z,20.27
2022-12-11T18:03:35.846Z,20.80
2022-12-11T18:06:11.936Z,22.27
2022-12-11T18:11:21.995Z,21.70
2022-12-11T18:13:48.977Z,20.23
2022-12-11T18:16:17.511Z,20.25
2022-12-11T18:18:46.201Z,25.73
2022-12-11T18:21:13.405Z,22.33
2022-12-11T18:23:40.026Z,22.77
2022-12-11T18:26:06.442Z,23.08
2022-12-11T18:28:32.982Z,22.17
2022-12-11T18:31:07.825Z,22.25
2022-12-11T18:33:35.635Z,26.70
2022-12-11T18:36:02.031Z,24.25
2022-12-11T18:38:28.538Z,24.83
2022-12-11T18:40:56.492Z,25.52
2022-12-11T18:43:26.326Z,25.33
2022-12-11T18:45:52.879Z,28.83
2022-12-11T18:48:19.285Z,30.33
2022-12-11T18:50:47.157Z,32.08
2022-12-11T18:53:13.956Z,26.35
2022-12-11T18:55:49.311Z,25.55
2022-12-11T18:58:19.224Z,25.85
2022-12-11T19:00:46.104Z,28.85
2022-12-11T19:03:13.876Z,26.67
2022-12-11T19:05:42.736Z,30.05
2022-12-11T19:08:10.115Z,30.35
2022-12-11T19:10:44.389Z,28.23
2022-12-11T19:13:12.553Z,40.17
2022-12-11T19:15:56.504Z,33.38
2022-12-11T19:18:23.088Z,28.55
2022-12-11T19:21:02.831Z,26.92
2022-12-11T19:23:33.358Z,25.33
2022-12-11T19:25:59.892Z,24.35
2022-12-11T19:28:29.541Z,25.40
2022-12-11T19:30:56.060Z,27.15
2022-12-11T19:33:28.469Z,26.63
2022-12-11T19:36:02.347Z,32.80
2022-12-11T19:38:38.496Z,28.58
2022-12-11T19:41:15.975Z,27.73
2022-12-11T19:43:42.725Z,31.15
2022-12-11T19:46:09.627Z,27.55
2022-12-11T19:50:10.275Z,30.10
2022-12-11T19:51:46.782Z,29.92
2022-12-11T19:54:20.626Z,28.00
2022-12-11T19:57:07.997Z,23.67
2022-12-11T19:59:34.797Z,23.73
2022-12-11T20:02:03.495Z,23.75
2022-12-11T20:04:31.480Z,25.90
2022-12-11T20:07:30.454Z,28.73
2022-12-11T20:10:00.638Z,27.52
2022-12-11T20:12:33.682Z,23.70
2022-12-11T20:15:00.215Z,22.73
2022-12-11T20:17:37.100Z,22.75
2022-12-11T20:20:08.941Z,23.48
2022-12-11T20:22:35.467Z,21.98
2022-12-11T20:25:03.186Z,22.88
2022-12-11T20:27:29.757Z,22.52
2022-12-11T20:29:56.245Z,25.08
2022-12-11T20:32:22.804Z,26.88
2022-12-11T20:34:49.262Z,27.38
2022-12-11T20:37:15.789Z,28.10
2022-12-11T20:39:42.224Z,33.15
2022-12-11T20:42:10.746Z,28.63
2022-12-11T20:44:45.621Z,27.48
2022-12-11T20:47:18.075Z,26.77
2022-12-11T20:49:44.506Z,29.50
2022-12-11T20:52:11.216Z,26.05
2022-12-11T20:54:38.341Z,25.08
2022-12-11T20:57:05.177Z,24.35
2022-12-11T20:59:31.658Z,25.05
2022-12-11T21:01:58.613Z,25.48
2022-12-11T21:04:25.244Z,28.77
2022-12-11T21:06:55.700Z,26.95
2022-12-11T21:09:23.493Z,29.30
2022-12-11T21:11:50.423Z,30.88
2022-12-11T21:14:18.050Z,30.88
2022-12-11T21:16:44.849Z,27.67
2022-12-11T21:19:16.699Z,26.95
2022-12-11T21:21:47.833Z,25.90
2022-12-11T21:24:18.741Z,26.27
2022-12-11T21:26:48.732Z,34.05
2022-12-11T21:29:15.719Z,30.67
2022-12-11T21:31:42.640Z,28.42
2022-12-11T21:34:09.564Z,26.88
2022-12-11T21:36:36.108Z,25.38
2022-12-11T21:39:02.947Z,25.80
2022-12-11T21:41:29.408Z,28.33
2022-12-11T21:45:21.216Z,27.45
2022-12-11T21:46:43.187Z,26.63
2022-12-11T21:49:10.076Z,31.33
2022-12-11T21:51:41.389Z,30.98
2022-12-11T21:54:13.330Z,32.70
2022-12-11T21:56:40.513Z,30.63
2022-12-11T21:59:07.223Z,30.25
2022-12-11T22:01:37.303Z,32.53
2022-12-11T22:04:05.148Z,37.28
2022-12-11T22:06:32.075Z,38.47
2022-12-11T22:08:58.550Z,37.33
2022-12-11T22:11:30.171Z,34.67
2022-12-11T22:13:56.879Z,29.23
2022-12-11T22:16:23.935Z,30.42
2022-12-11T22:19:07.481Z,28.27
2022-12-11T22:21:41.207Z,27.00
2022-12-11T22:24:25.945Z,26.25
2022-12-11T22:26:52.464Z,24.23
2022-12-11T22:29:18.959Z,25.55
2022-12-11T22:31:45.423Z,25.50
2022-12-11T22:34:11.959Z,23.58
2022-12-11T22:36:38.450Z,22.65
2022-12-11T22:39:04.879Z,23.90
2022-12-11T22:41:32.375Z,22.88
2022-12-11T22:43:59.592Z,22.73
2022-12-11T22:46:28.036Z,22.63
2022-12-11T22:48:54.985Z,23.00
2022-12-11T22:51:36.944Z,23.45
2022-12-11T22:54:04.127Z,24.35
2022-12-11T22:56:30.868Z,24.48
2022-12-11T22:58:57.854Z,23.95
2022-12-11T23:01:25.636Z,23.80
2022-12-11T23:03:52.480Z,24.38
2022-12-11T23:06:21.175Z,22.55
2022-12-11T23:08:47.915Z,24.35
2022-12-11T23:11:19.275Z,24.88
2022-12-11T23:13:45.763Z,23.90
2022-12-11T23:16:12.670Z,25.13
2022-12-11T23:18:42.686Z,25.08
2022-12-11T23:21:10.215Z,27.00
2022-12-11T23:23:36.784Z,25.98
2022-12-11T23:26:04.261Z,25.63
2022-12-11T23:28:30.791Z,25.50
2022-12-11T23:30:57.337Z,26.00
2022-12-11T23:33:24.092Z,24.85
2022-12-11T23:35:50.571Z,27.05
2022-12-11T23:38:17.645Z,26.05
2022-12-11T23:40:44.395Z,24.13
2022-12-11T23:43:10.915Z,24.08
2022-12-11T23:46:00.098Z,24.60
2022-12-11T23:48:26.612Z,23.13
2022-12-11T23:50:57.550Z,25.98
2022-12-11T23:53:23.985Z,25.30
2022-12-11T23:55:50.439Z,25.27
2022-12-11T23:58:16.954Z,23.75
